sensor_id;sensor_type;location;lat;lon;timestamp;temperature;humidity
31729;DHT22;18309;43.658;1.312;2023-07-29T00:02:22;22.60;99.90
31729;DHT22;18309;43.658;1.312;2023-07-29T00:04:48;22.60;99.90
31729;DHT22;18309;43.658;1.312;2023-07-29T00:07:13;22.70;99.90
31729;DHT22;18309;43.658;1.312;2023-07-29T00:09:39;22.70;99.90
31729;DHT22;18309;43.658;1.312;2023-07-29T00:12:05;22.70;99.90
31729;DHT22;18309;43.658;1.312;2023-07-29T00:14:30;22.50;99.90
31729;DHT22;18309;43.658;1.312;2023-07-29T00:16:56;22.40;99.90
31729;DHT22;18309;43.658;1.312;2023-07-29T00:19:22;22.30;99.90
31729;DHT22;18309;43.658;1.312;2023-07-29T00:21:49;22.50;99.90
31729;DHT22;18309;43.658;1.312;2023-07-29T00:24:14;22.50;99.90
31729;DHT22;18309;43.658;1.312;2023-07-29T00:26:40;22.50;99.90
31729;DHT22;18309;43.658;1.312;2023-07-29T00:29:06;22.40;99.90
31729;DHT22;18309;43.658;1.312;2023-07-29T00:31:31;22.20;99.90
31729;DHT22;18309;43.658;1.312;2023-07-29T00:33:57;22.10;99.90
31729;DHT22;18309;43.658;1.312;2023-07-29T00:36:23;22.00;99.90
31729;DHT22;18309;43.658;1.312;2023-07-29T00:38:49;21.90;99.90
31729;DHT22;18309;43.658;1.312;2023-07-29T00:41:15;21.90;99.90
31729;DHT22;18309;43.658;1.312;2023-07-29T00:43:41;21.90;99.90
31729;DHT22;18309;43.658;1.312;2023-07-29T00:46:08;21.80;99.90
31729;DHT22;18309;43.658;1.312;2023-07-29T00:48:34;21.80;99.90
31729;DHT22;18309;43.658;1.312;2023-07-29T00:51:00;21.90;99.90
31729;DHT22;18309;43.658;1.312;2023-07-29T00:53:26;21.90;99.90
31729;DHT22;18309;43.658;1.312;2023-07-29T00:55:52;21.80;99.90
31729;DHT22;18309;43.658;1.312;2023-07-29T00:58:18;21.70;99.90
31729;DHT22;18309;43.658;1.312;2023-07-29T01:00:44;21.70;99.90
31729;DHT22;18309;43.658;1.312;2023-07-29T01:03:10;21.60;99.90
31729;DHT22;18309;43.658;1.312;2023-07-29T01:08:37;21.40;99.90
31729;DHT22;18309;43.658;1.312;2023-07-29T01:11:14;21.50;99.90
31729;DHT22;18309;43.658;1.312;2023-07-29T01:13:54;21.60;99.90
31729;DHT22;18309;43.658;1.312;2023-07-29T01:16:48;21.60;99.90
31729;DHT22;18309;43.658;1.312;2023-07-29T01:22:11;21.50;99.90
31729;DHT22;18309;43.658;1.312;2023-07-29T01:24:38;21.40;99.90
31729;DHT22;18309;43.658;1.312;2023-07-29T01:27:04;21.50;99.90
31729;DHT22;18309;43.658;1.312;2023-07-29T01:29:30;21.50;99.90
31729;DHT22;18309;43.658;1.312;2023-07-29T01:32:01;21.60;99.90
31729;DHT22;18309;43.658;1.312;2023-07-29T01:34:55;21.60;99.90
31729;DHT22;18309;43.658;1.312;2023-07-29T01:37:25;21.50;99.90
31729;DHT22;18309;43.658;1.312;2023-07-29T01:39:54;21.50;99.90
31729;DHT22;18309;43.658;1.312;2023-07-29T01:42:21;21.50;99.90
31729;DHT22;18309;43.658;1.312;2023-07-29T01:44:48;21.40;99.90
31729;DHT22;18309;43.658;1.312;2023-07-29T01:47:13;21.40;99.90
31729;DHT22;18309;43.658;1.312;2023-07-29T01:49:39;21.30;99.90
31729;DHT22;18309;43.658;1.312;2023-07-29T01:52:05;21.40;99.90
31729;DHT22;18309;43.658;1.312;2023-07-29T01:54:30;21.40;99.90
31729;DHT22;18309;43.658;1.312;2023-07-29T01:56:56;21.50;99.90
31729;DHT22;18309;43.658;1.312;2023-07-29T01:59:22;21.40;99.90
31729;DHT22;18309;43.658;1.312;2023-07-29T02:01:47;21.30;99.90
31729;DHT22;18309;43.658;1.312;2023-07-29T02:04:14;21.40;99.90
31729;DHT22;18309;43.658;1.312;2023-07-29T02:06:40;21.30;99.90
31729;DHT22;18309;43.658;1.312;2023-07-29T02:09:05;21.20;99.90
31729;DHT22;18309;43.658;1.312;2023-07-29T02:11:31;21.10;99.90
31729;DHT22;18309;43.658;1.312;2023-07-29T02:13:57;21.20;99.90
31729;DHT22;18309;43.658;1.312;2023-07-29T02:16:23;21.10;99.90
31729;DHT22;18309;43.658;1.312;2023-07-29T02:18:49;21.10;99.90
31729;DHT22;18309;43.658;1.312;2023-07-29T02:21:15;21.10;99.90
31729;DHT22;18309;43.658;1.312;2023-07-29T02:23:41;21.00;99.90
31729;DHT22;18309;43.658;1.312;2023-07-29T02:26:07;20.80;99.90
31729;DHT22;18309;43.658;1.312;2023-07-29T02:28:33;20.70;99.90
31729;DHT22;18309;43.658;1.312;2023-07-29T02:31:21;20.70;99.90
31729;DHT22;18309;43.658;1.312;2023-07-29T02:33:47;20.60;99.90
31729;DHT22;18309;43.658;1.312;2023-07-29T02:36:13;20.60;99.90
31729;DHT22;18309;43.658;1.312;2023-07-29T02:38:40;20.60;99.90
31729;DHT22;18309;43.658;1.312;2023-07-29T02:41:06;20.80;99.90
31729;DHT22;18309;43.658;1.312;2023-07-29T02:43:32;20.70;99.90
31729;DHT22;18309;43.658;1.312;2023-07-29T02:45:57;20.60;99.90
31729;DHT22;18309;43.658;1.312;2023-07-29T02:48:23;20.60;99.90
31729;DHT22;18309;43.658;1.312;2023-07-29T02:50:49;20.70;99.90
31729;DHT22;18309;43.658;1.312;2023-07-29T02:53:15;20.60;99.90
31729;DHT22;18309;43.658;1.312;2023-07-29T02:55:41;20.70;99.90
31729;DHT22;18309;43.658;1.312;2023-07-29T02:58:07;20.60;99.90
31729;DHT22;18309;43.658;1.312;2023-07-29T03:00:33;20.50;99.90
31729;DHT22;18309;43.658;1.312;2023-07-29T03:02:59;20.50;99.90
31729;DHT22;18309;43.658;1.312;2023-07-29T03:05:27;20.60;99.90
31729;DHT22;18309;43.658;1.312;2023-07-29T03:07:53;20.50;99.90
31729;DHT22;18309;43.658;1.312;2023-07-29T03:10:18;20.50;99.90
31729;DHT22;18309;43.658;1.312;2023-07-29T03:12:44;20.50;99.90
31729;DHT22;18309;43.658;1.312;2023-07-29T03:15:10;20.50;99.90
31729;DHT22;18309;43.658;1.312;2023-07-29T03:17:35;20.50;99.90
31729;DHT22;18309;43.658;1.312;2023-07-29T03:20:01;20.50;99.90
31729;DHT22;18309;43.658;1.312;2023-07-29T03:22:27;20.50;99.90
31729;DHT22;18309;43.658;1.312;2023-07-29T03:24:52;20.60;99.90
31729;DHT22;18309;43.658;1.312;2023-07-29T03:27:18;20.50;99.90
31729;DHT22;18309;43.658;1.312;2023-07-29T03:29:44;20.50;99.90
31729;DHT22;18309;43.658;1.312;2023-07-29T03:32:09;20.50;99.90
31729;DHT22;18309;43.658;1.312;2023-07-29T03:34:35;20.50;99.90
31729;DHT22;18309;43.658;1.312;2023-07-29T03:37:01;20.50;99.90
31729;DHT22;18309;43.658;1.312;2023-07-29T03:39:26;20.50;99.90
31729;DHT22;18309;43.658;1.312;2023-07-29T03:41:52;20.50;99.90
31729;DHT22;18309;43.658;1.312;2023-07-29T03:44:18;20.40;99.90
31729;DHT22;18309;43.658;1.312;2023-07-29T03:46:44;20.40;99.90
31729;DHT22;18309;43.658;1.312;2023-07-29T03:49:10;20.40;99.90
31729;DHT22;18309;43.658;1.312;2023-07-29T03:51:36;20.40;99.90
31729;DHT22;18309;43.658;1.312;2023-07-29T03:54:02;20.40;99.90
31729;DHT22;18309;43.658;1.312;2023-07-29T03:56:27;20.50;99.90
31729;DHT22;18309;43.658;1.312;2023-07-29T03:58:53;20.50;99.90
31729;DHT22;18309;43.658;1.312;2023-07-29T04:01:19;20.50;99.90
31729;DHT22;18309;43.658;1.312;2023-07-29T04:03:45;20.60;99.90
31729;DHT22;18309;43.658;1.312;2023-07-29T04:06:14;20.70;99.90
31729;DHT22;18309;43.658;1.312;2023-07-29T04:08:40;20.60;99.90
31729;DHT22;18309;43.658;1.312;2023-07-29T04:11:07;20.50;99.90
31729;DHT22;18309;43.658;1.312;2023-07-29T04:13:32;20.60;99.90
31729;DHT22;18309;43.658;1.312;2023-07-29T04:15:58;20.50;99.90
31729;DHT22;18309;43.658;1.312;2023-07-29T04:18:24;20.50;99.90
31729;DHT22;18309;43.658;1.312;2023-07-29T04:20:49;20.40;99.90
31729;DHT22;18309;43.658;1.312;2023-07-29T04:23:15;20.40;99.90
31729;DHT22;18309;43.658;1.312;2023-07-29T04:25:40;20.50;99.90
31729;DHT22;18309;43.658;1.312;2023-07-29T04:28:06;20.50;99.90
31729;DHT22;18309;43.658;1.312;2023-07-29T04:30:32;20.50;99.90
31729;DHT22;18309;43.658;1.312;2023-07-29T04:32:58;20.40;99.90
31729;DHT22;18309;43.658;1.312;2023-07-29T04:35:23;20.40;99.90
31729;DHT22;18309;43.658;1.312;2023-07-29T04:37:49;20.10;99.90
31729;DHT22;18309;43.658;1.312;2023-07-29T04:40:15;20.00;99.90
31729;DHT22;18309;43.658;1.312;2023-07-29T04:42:41;19.90;99.90
31729;DHT22;18309;43.658;1.312;2023-07-29T04:45:06;19.90;99.90
31729;DHT22;18309;43.658;1.312;2023-07-29T04:47:32;19.70;99.90
31729;DHT22;18309;43.658;1.312;2023-07-29T04:49:58;19.80;99.90
31729;DHT22;18309;43.658;1.312;2023-07-29T04:52:24;19.80;99.90
31729;DHT22;18309;43.658;1.312;2023-07-29T04:54:50;19.80;99.90
31729;DHT22;18309;43.658;1.312;2023-07-29T04:57:16;19.90;99.90
31729;DHT22;18309;43.658;1.312;2023-07-29T04:59:42;20.00;99.90
31729;DHT22;18309;43.658;1.312;2023-07-29T05:02:07;20.10;99.90
31729;DHT22;18309;43.658;1.312;2023-07-29T05:04:33;19.90;99.90
31729;DHT22;18309;43.658;1.312;2023-07-29T05:06:59;19.70;99.90
31729;DHT22;18309;43.658;1.312;2023-07-29T05:09:24;19.60;99.90
31729;DHT22;18309;43.658;1.312;2023-07-29T05:11:51;19.60;99.90
31729;DHT22;18309;43.658;1.312;2023-07-29T05:14:17;19.60;99.90
31729;DHT22;18309;43.658;1.312;2023-07-29T05:16:43;19.70;99.90
31729;DHT22;18309;43.658;1.312;2023-07-29T05:19:09;19.60;99.90
31729;DHT22;18309;43.658;1.312;2023-07-29T05:21:36;19.60;99.90
31729;DHT22;18309;43.658;1.312;2023-07-29T05:24:02;19.50;99.90
31729;DHT22;18309;43.658;1.312;2023-07-29T05:26:28;19.60;99.90
31729;DHT22;18309;43.658;1.312;2023-07-29T05:28:54;19.60;99.90
31729;DHT22;18309;43.658;1.312;2023-07-29T05:31:19;19.70;99.90
31729;DHT22;18309;43.658;1.312;2023-07-29T05:33:45;19.80;99.90
31729;DHT22;18309;43.658;1.312;2023-07-29T05:36:11;19.90;99.90
31729;DHT22;18309;43.658;1.312;2023-07-29T05:38:36;20.00;99.90
31729;DHT22;18309;43.658;1.312;2023-07-29T05:41:02;20.00;99.90
31729;DHT22;18309;43.658;1.312;2023-07-29T05:43:28;19.90;99.90
31729;DHT22;18309;43.658;1.312;2023-07-29T05:45:53;19.90;99.90
31729;DHT22;18309;43.658;1.312;2023-07-29T05:48:20;20.00;99.90
31729;DHT22;18309;43.658;1.312;2023-07-29T05:50:45;20.20;99.90
31729;DHT22;18309;43.658;1.312;2023-07-29T05:53:11;20.20;99.90
31729;DHT22;18309;43.658;1.312;2023-07-29T05:55:38;20.30;99.90
31729;DHT22;18309;43.658;1.312;2023-07-29T05:58:04;20.40;99.90
31729;DHT22;18309;43.658;1.312;2023-07-29T06:00:29;20.50;99.90
31729;DHT22;18309;43.658;1.312;2023-07-29T06:02:55;20.50;99.90
31729;DHT22;18309;43.658;1.312;2023-07-29T06:05:21;20.50;99.90
31729;DHT22;18309;43.658;1.312;2023-07-29T06:07:47;20.60;99.90
31729;DHT22;18309;43.658;1.312;2023-07-29T06:10:15;20.60;99.90
31729;DHT22;18309;43.658;1.312;2023-07-29T06:12:44;20.80;99.90
31729;DHT22;18309;43.658;1.312;2023-07-29T06:15:13;20.80;99.90
31729;DHT22;18309;43.658;1.312;2023-07-29T06:17:39;20.80;99.90
31729;DHT22;18309;43.658;1.312;2023-07-29T06:20:06;20.90;99.90
31729;DHT22;18309;43.658;1.312;2023-07-29T06:22:32;21.00;99.90
31729;DHT22;18309;43.658;1.312;2023-07-29T06:24:58;21.00;99.90
31729;DHT22;18309;43.658;1.312;2023-07-29T06:27:24;21.00;99.90
31729;DHT22;18309;43.658;1.312;2023-07-29T06:29:50;21.10;99.90
31729;DHT22;18309;43.658;1.312;2023-07-29T06:32:16;21.10;99.90
31729;DHT22;18309;43.658;1.312;2023-07-29T06:34:42;21.20;99.90
31729;DHT22;18309;43.658;1.312;2023-07-29T06:37:07;21.20;99.90
31729;DHT22;18309;43.658;1.312;2023-07-29T06:39:33;21.40;99.90
31729;DHT22;18309;43.658;1.312;2023-07-29T06:41:59;21.50;99.90
31729;DHT22;18309;43.658;1.312;2023-07-29T06:44:24;21.50;99.90
31729;DHT22;18309;43.658;1.312;2023-07-29T06:46:50;21.60;99.90
31729;DHT22;18309;43.658;1.312;2023-07-29T06:49:16;21.70;99.90
31729;DHT22;18309;43.658;1.312;2023-07-29T06:51:41;21.80;99.90
31729;DHT22;18309;43.658;1.312;2023-07-29T06:54:07;21.90;99.90
31729;DHT22;18309;43.658;1.312;2023-07-29T06:56:33;22.00;99.90
31729;DHT22;18309;43.658;1.312;2023-07-29T06:58:58;22.00;99.90
31729;DHT22;18309;43.658;1.312;2023-07-29T07:01:24;22.20;99.90
31729;DHT22;18309;43.658;1.312;2023-07-29T07:03:50;22.20;99.90
31729;DHT22;18309;43.658;1.312;2023-07-29T07:06:15;22.20;99.90
31729;DHT22;18309;43.658;1.312;2023-07-29T07:08:41;22.30;99.90
31729;DHT22;18309;43.658;1.312;2023-07-29T07:11:07;22.40;99.90
31729;DHT22;18309;43.658;1.312;2023-07-29T07:13:33;22.40;99.90
31729;DHT22;18309;43.658;1.312;2023-07-29T07:15:59;22.50;99.90
31729;DHT22;18309;43.658;1.312;2023-07-29T07:18:25;22.50;99.90
31729;DHT22;18309;43.658;1.312;2023-07-29T07:20:51;22.60;99.90
31729;DHT22;18309;43.658;1.312;2023-07-29T07:23:18;22.70;99.90
31729;DHT22;18309;43.658;1.312;2023-07-29T07:25:45;22.80;99.90
31729;DHT22;18309;43.658;1.312;2023-07-29T07:28:10;22.90;99.90
31729;DHT22;18309;43.658;1.312;2023-07-29T07:30:40;23.00;99.90
31729;DHT22;18309;43.658;1.312;2023-07-29T07:33:07;23.00;99.90
31729;DHT22;18309;43.658;1.312;2023-07-29T07:35:32;23.00;99.90
31729;DHT22;18309;43.658;1.312;2023-07-29T07:37:58;23.00;99.90
31729;DHT22;18309;43.658;1.312;2023-07-29T07:40:27;23.10;99.90
31729;DHT22;18309;43.658;1.312;2023-07-29T07:42:53;23.30;99.90
31729;DHT22;18309;43.658;1.312;2023-07-29T07:45:19;23.30;99.90
31729;DHT22;18309;43.658;1.312;2023-07-29T07:47:45;23.30;99.90
31729;DHT22;18309;43.658;1.312;2023-07-29T07:50:11;23.40;99.90
31729;DHT22;18309;43.658;1.312;2023-07-29T07:52:36;23.40;99.90
31729;DHT22;18309;43.658;1.312;2023-07-29T07:55:02;23.50;99.90
31729;DHT22;18309;43.658;1.312;2023-07-29T07:57:28;23.60;99.90
31729;DHT22;18309;43.658;1.312;2023-07-29T07:59:53;23.60;99.90
31729;DHT22;18309;43.658;1.312;2023-07-29T08:02:19;23.60;99.90
31729;DHT22;18309;43.658;1.312;2023-07-29T08:04:45;23.80;99.90
31729;DHT22;18309;43.658;1.312;2023-07-29T08:07:11;23.90;99.90
31729;DHT22;18309;43.658;1.312;2023-07-29T08:09:37;24.00;99.90
31729;DHT22;18309;43.658;1.312;2023-07-29T08:12:03;24.00;99.90
31729;DHT22;18309;43.658;1.312;2023-07-29T08:14:28;24.10;99.90
31729;DHT22;18309;43.658;1.312;2023-07-29T08:16:54;24.20;99.90
31729;DHT22;18309;43.658;1.312;2023-07-29T08:19:20;24.20;99.90
31729;DHT22;18309;43.658;1.312;2023-07-29T08:21:45;24.30;99.90
31729;DHT22;18309;43.658;1.312;2023-07-29T08:24:11;24.40;99.90
31729;DHT22;18309;43.658;1.312;2023-07-29T08:26:37;24.40;99.90
31729;DHT22;18309;43.658;1.312;2023-07-29T08:29:02;24.50;99.90
31729;DHT22;18309;43.658;1.312;2023-07-29T08:31:28;24.60;99.90
31729;DHT22;18309;43.658;1.312;2023-07-29T08:33:54;24.70;99.90
31729;DHT22;18309;43.658;1.312;2023-07-29T08:36:19;24.70;99.90
31729;DHT22;18309;43.658;1.312;2023-07-29T08:38:45;24.70;99.90
31729;DHT22;18309;43.658;1.312;2023-07-29T08:41:26;24.70;99.90
31729;DHT22;18309;43.658;1.312;2023-07-29T08:46:36;24.80;99.90
31729;DHT22;18309;43.658;1.312;2023-07-29T08:49:02;24.90;99.90
31729;DHT22;18309;43.658;1.312;2023-07-29T08:51:29;25.00;99.90
31729;DHT22;18309;43.658;1.312;2023-07-29T08:53:56;25.10;99.90
31729;DHT22;18309;43.658;1.312;2023-07-29T08:56:24;25.20;99.90
31729;DHT22;18309;43.658;1.312;2023-07-29T08:58:50;25.20;99.90
31729;DHT22;18309;43.658;1.312;2023-07-29T09:01:16;25.20;99.90
31729;DHT22;18309;43.658;1.312;2023-07-29T09:03:42;25.40;99.90
31729;DHT22;18309;43.658;1.312;2023-07-29T09:06:08;25.50;99.90
31729;DHT22;18309;43.658;1.312;2023-07-29T09:08:34;25.50;99.90
31729;DHT22;18309;43.658;1.312;2023-07-29T09:11:00;25.50;99.90
31729;DHT22;18309;43.658;1.312;2023-07-29T09:13:26;25.60;99.90
31729;DHT22;18309;43.658;1.312;2023-07-29T09:15:57;25.70;99.90
31729;DHT22;18309;43.658;1.312;2023-07-29T09:18:23;25.80;99.50
31729;DHT22;18309;43.658;1.312;2023-07-29T09:20:49;25.70;99.80
31729;DHT22;18309;43.658;1.312;2023-07-29T09:23:16;25.80;99.60
31729;DHT22;18309;43.658;1.312;2023-07-29T09:25:42;25.90;99.40
31729;DHT22;18309;43.658;1.312;2023-07-29T09:28:15;25.90;98.90
31729;DHT22;18309;43.658;1.312;2023-07-29T09:30:44;26.00;99.50
31729;DHT22;18309;43.658;1.312;2023-07-29T09:33:10;26.00;99.00
31729;DHT22;18309;43.658;1.312;2023-07-29T09:35:37;26.10;99.00
31729;DHT22;18309;43.658;1.312;2023-07-29T09:38:04;26.20;99.00
31729;DHT22;18309;43.658;1.312;2023-07-29T09:40:38;26.20;99.20
31729;DHT22;18309;43.658;1.312;2023-07-29T09:43:04;26.30;98.80
31729;DHT22;18309;43.658;1.312;2023-07-29T09:45:33;26.30;98.50
31729;DHT22;18309;43.658;1.312;2023-07-29T09:47:59;26.40;98.60
31729;DHT22;18309;43.658;1.312;2023-07-29T09:50:27;26.40;98.60
31729;DHT22;18309;43.658;1.312;2023-07-29T09:52:54;26.50;98.30
31729;DHT22;18309;43.658;1.312;2023-07-29T09:55:24;26.60;98.10
31729;DHT22;18309;43.658;1.312;2023-07-29T09:57:56;26.60;98.40
31729;DHT22;18309;43.658;1.312;2023-07-29T10:00:25;26.60;97.50
31729;DHT22;18309;43.658;1.312;2023-07-29T10:02:51;26.70;97.70
31729;DHT22;18309;43.658;1.312;2023-07-29T10:05:17;26.90;97.70
31729;DHT22;18309;43.658;1.312;2023-07-29T10:07:43;27.00;97.50
31729;DHT22;18309;43.658;1.312;2023-07-29T10:10:10;27.00;97.80
31729;DHT22;18309;43.658;1.312;2023-07-29T10:12:36;27.20;97.40
31729;DHT22;18309;43.658;1.312;2023-07-29T10:15:06;27.20;97.10
31729;DHT22;18309;43.658;1.312;2023-07-29T10:17:36;27.30;97.10
31729;DHT22;18309;43.658;1.312;2023-07-29T10:20:06;27.50;96.80
31729;DHT22;18309;43.658;1.312;2023-07-29T10:22:41;27.50;96.50
31729;DHT22;18309;43.658;1.312;2023-07-29T10:25:10;27.60;96.40
31729;DHT22;18309;43.658;1.312;2023-07-29T10:27:57;27.50;96.70
31729;DHT22;18309;43.658;1.312;2023-07-29T10:30:24;27.50;96.40
31729;DHT22;18309;43.658;1.312;2023-07-29T10:32:52;27.60;96.60
31729;DHT22;18309;43.658;1.312;2023-07-29T10:35:18;27.70;96.20
31729;DHT22;18309;43.658;1.312;2023-07-29T10:37:44;27.80;96.30
31729;DHT22;18309;43.658;1.312;2023-07-29T10:40:11;27.80;95.60
31729;DHT22;18309;43.658;1.312;2023-07-29T10:42:38;27.80;95.60
31729;DHT22;18309;43.658;1.312;2023-07-29T10:45:20;27.80;95.30
31729;DHT22;18309;43.658;1.312;2023-07-29T10:47:47;27.80;95.40
31729;DHT22;18309;43.658;1.312;2023-07-29T10:50:18;28.00;95.40
31729;DHT22;18309;43.658;1.312;2023-07-29T10:52:49;28.10;95.10
31729;DHT22;18309;43.658;1.312;2023-07-29T10:55:43;28.10;95.20
31729;DHT22;18309;43.658;1.312;2023-07-29T10:58:13;28.10;95.00
31729;DHT22;18309;43.658;1.312;2023-07-29T11:00:41;28.20;95.00
31729;DHT22;18309;43.658;1.312;2023-07-29T11:03:08;28.40;94.90
31729;DHT22;18309;43.658;1.312;2023-07-29T11:08:27;28.40;94.60
31729;DHT22;18309;43.658;1.312;2023-07-29T11:11:04;28.50;94.90
31729;DHT22;18309;43.658;1.312;2023-07-29T11:13:32;28.70;94.10
31729;DHT22;18309;43.658;1.312;2023-07-29T11:15:58;28.50;94.40
31729;DHT22;18309;43.658;1.312;2023-07-29T11:18:33;28.60;94.00
31729;DHT22;18309;43.658;1.312;2023-07-29T11:21:03;28.50;94.10
31729;DHT22;18309;43.658;1.312;2023-07-29T11:23:34;28.60;94.50
31729;DHT22;18309;43.658;1.312;2023-07-29T11:26:01;28.60;94.70
31729;DHT22;18309;43.658;1.312;2023-07-29T11:28:28;28.70;94.60
31729;DHT22;18309;43.658;1.312;2023-07-29T11:30:55;28.80;94.40
31729;DHT22;18309;43.658;1.312;2023-07-29T11:33:22;29.00;94.20
31729;DHT22;18309;43.658;1.312;2023-07-29T11:35:47;28.90;93.80
31729;DHT22;18309;43.658;1.312;2023-07-29T11:38:18;29.00;93.30
31729;DHT22;18309;43.658;1.312;2023-07-29T11:40:57;29.10;93.00
31729;DHT22;18309;43.658;1.312;2023-07-29T11:43:23;29.20;92.70
31729;DHT22;18309;43.658;1.312;2023-07-29T11:45:49;29.20;92.30
31729;DHT22;18309;43.658;1.312;2023-07-29T11:48:15;29.50;92.70
31729;DHT22;18309;43.658;1.312;2023-07-29T11:50:40;29.50;92.60
31729;DHT22;18309;43.658;1.312;2023-07-29T11:53:06;29.50;91.50
31729;DHT22;18309;43.658;1.312;2023-07-29T11:55:33;29.50;91.70
31729;DHT22;18309;43.658;1.312;2023-07-29T11:58:01;29.60;92.00
31729;DHT22;18309;43.658;1.312;2023-07-29T12:00:27;29.50;91.10
31729;DHT22;18309;43.658;1.312;2023-07-29T12:02:53;29.50;91.20
31729;DHT22;18309;43.658;1.312;2023-07-29T12:05:21;29.60;90.90
31729;DHT22;18309;43.658;1.312;2023-07-29T12:07:47;29.60;91.30
31729;DHT22;18309;43.658;1.312;2023-07-29T12:10:13;29.70;90.40
31729;DHT22;18309;43.658;1.312;2023-07-29T12:12:49;30.00;90.10
31729;DHT22;18309;43.658;1.312;2023-07-29T12:15:26;30.10;90.40
31729;DHT22;18309;43.658;1.312;2023-07-29T12:17:58;30.10;89.90
31729;DHT22;18309;43.658;1.312;2023-07-29T12:20:26;30.10;89.70
31729;DHT22;18309;43.658;1.312;2023-07-29T12:22:56;30.20;89.60
31729;DHT22;18309;43.658;1.312;2023-07-29T12:25:22;30.30;89.30
31729;DHT22;18309;43.658;1.312;2023-07-29T12:27:50;30.30;88.90
31729;DHT22;18309;43.658;1.312;2023-07-29T12:30:15;30.30;89.90
31729;DHT22;18309;43.658;1.312;2023-07-29T12:32:46;30.40;89.40
31729;DHT22;18309;43.658;1.312;2023-07-29T12:35:12;30.50;89.70
31729;DHT22;18309;43.658;1.312;2023-07-29T12:37:38;30.70;88.00
31729;DHT22;18309;43.658;1.312;2023-07-29T12:40:24;30.80;87.80
31729;DHT22;18309;43.658;1.312;2023-07-29T12:42:50;30.60;87.20
31729;DHT22;18309;43.658;1.312;2023-07-29T12:45:20;30.60;88.00
31729;DHT22;18309;43.658;1.312;2023-07-29T12:47:48;30.70;87.80
31729;DHT22;18309;43.658;1.312;2023-07-29T12:50:14;30.70;87.50
31729;DHT22;18309;43.658;1.312;2023-07-29T12:52:40;30.80;87.40
31729;DHT22;18309;43.658;1.312;2023-07-29T12:55:06;30.80;87.70
31729;DHT22;18309;43.658;1.312;2023-07-29T12:57:34;31.00;86.70
31729;DHT22;18309;43.658;1.312;2023-07-29T13:00:00;31.20;86.90
31729;DHT22;18309;43.658;1.312;2023-07-29T13:02:26;31.00;86.60
31729;DHT22;18309;43.658;1.312;2023-07-29T13:04:52;30.90;86.80
31729;DHT22;18309;43.658;1.312;2023-07-29T13:07:18;31.00;87.10
31729;DHT22;18309;43.658;1.312;2023-07-29T13:09:43;31.00;86.70
31729;DHT22;18309;43.658;1.312;2023-07-29T13:12:09;31.20;86.70
31729;DHT22;18309;43.658;1.312;2023-07-29T13:14:34;31.20;86.20
31729;DHT22;18309;43.658;1.312;2023-07-29T13:17:00;31.00;87.00
31729;DHT22;18309;43.658;1.312;2023-07-29T13:19:26;30.90;87.10
31729;DHT22;18309;43.658;1.312;2023-07-29T13:21:51;30.90;86.80
31729;DHT22;18309;43.658;1.312;2023-07-29T13:24:17;30.80;86.80
31729;DHT22;18309;43.658;1.312;2023-07-29T13:26:43;30.70;87.10
31729;DHT22;18309;43.658;1.312;2023-07-29T13:29:08;30.80;87.10
31729;DHT22;18309;43.658;1.312;2023-07-29T13:31:37;30.80;86.20
31729;DHT22;18309;43.658;1.312;2023-07-29T13:34:02;31.00;86.00
31729;DHT22;18309;43.658;1.312;2023-07-29T13:36:28;31.20;85.70
31729;DHT22;18309;43.658;1.312;2023-07-29T13:38:54;31.20;85.50
31729;DHT22;18309;43.658;1.312;2023-07-29T13:41:20;31.20;85.60
31729;DHT22;18309;43.658;1.312;2023-07-29T13:43:46;31.30;84.90
31729;DHT22;18309;43.658;1.312;2023-07-29T13:46:11;31.40;84.50
31729;DHT22;18309;43.658;1.312;2023-07-29T13:48:37;31.40;83.60
31729;DHT22;18309;43.658;1.312;2023-07-29T13:51:03;31.30;83.50
31729;DHT22;18309;43.658;1.312;2023-07-29T13:53:30;31.10;84.90
31729;DHT22;18309;43.658;1.312;2023-07-29T13:55:57;31.00;85.50
31729;DHT22;18309;43.658;1.312;2023-07-29T13:58:22;30.90;85.70
31729;DHT22;18309;43.658;1.312;2023-07-29T14:00:49;31.30;84.70
31729;DHT22;18309;43.658;1.312;2023-07-29T14:03:15;32.60;80.80
31729;DHT22;18309;43.658;1.312;2023-07-29T14:05:40;32.90;78.80
31729;DHT22;18309;43.658;1.312;2023-07-29T14:08:06;34.80;74.60
31729;DHT22;18309;43.658;1.312;2023-07-29T14:10:32;35.40;72.30
31729;DHT22;18309;43.658;1.312;2023-07-29T14:12:57;33.90;76.60
31729;DHT22;18309;43.658;1.312;2023-07-29T14:15:23;33.40;77.60
31729;DHT22;18309;43.658;1.312;2023-07-29T14:17:49;35.70;71.40
31729;DHT22;18309;43.658;1.312;2023-07-29T14:20:15;34.30;75.50
31729;DHT22;18309;43.658;1.312;2023-07-29T14:22:40;34.30;77.20
31729;DHT22;18309;43.658;1.312;2023-07-29T14:25:07;34.40;74.90
31729;DHT22;18309;43.658;1.312;2023-07-29T14:27:33;33.00;79.60
31729;DHT22;18309;43.658;1.312;2023-07-29T14:29:58;32.40;81.20
31729;DHT22;18309;43.658;1.312;2023-07-29T14:32:24;32.10;81.60
31729;DHT22;18309;43.658;1.312;2023-07-29T14:34:50;31.80;82.70
31729;DHT22;18309;43.658;1.312;2023-07-29T14:37:15;31.70;83.60
31729;DHT22;18309;43.658;1.312;2023-07-29T14:39:41;32.40;83.20
31729;DHT22;18309;43.658;1.312;2023-07-29T14:42:07;33.90;79.40
31729;DHT22;18309;43.658;1.312;2023-07-29T14:44:34;34.20;78.20
31729;DHT22;18309;43.658;1.312;2023-07-29T14:46:59;34.40;77.70
31729;DHT22;18309;43.658;1.312;2023-07-29T14:49:25;34.30;76.60
31729;DHT22;18309;43.658;1.312;2023-07-29T14:51:51;33.80;77.70
31729;DHT22;18309;43.658;1.312;2023-07-29T14:54:16;33.20;79.70
31729;DHT22;18309;43.658;1.312;2023-07-29T14:56:42;33.00;80.60
31729;DHT22;18309;43.658;1.312;2023-07-29T14:59:09;32.60;81.10
31729;DHT22;18309;43.658;1.312;2023-07-29T15:01:34;32.80;80.90
31729;DHT22;18309;43.658;1.312;2023-07-29T15:04:00;32.50;80.70
31729;DHT22;18309;43.658;1.312;2023-07-29T15:06:26;32.10;81.70
31729;DHT22;18309;43.658;1.312;2023-07-29T15:08:51;31.80;83.30
31729;DHT22;18309;43.658;1.312;2023-07-29T15:11:17;31.50;83.30
31729;DHT22;18309;43.658;1.312;2023-07-29T15:13:43;31.20;84.90
31729;DHT22;18309;43.658;1.312;2023-07-29T15:16:08;31.20;85.20
31729;DHT22;18309;43.658;1.312;2023-07-29T15:18:34;31.00;85.20
31729;DHT22;18309;43.658;1.312;2023-07-29T15:21:00;31.00;85.60
31729;DHT22;18309;43.658;1.312;2023-07-29T15:23:27;30.90;85.40
31729;DHT22;18309;43.658;1.312;2023-07-29T15:25:53;30.80;86.00
31729;DHT22;18309;43.658;1.312;2023-07-29T15:28:19;30.80;85.90
31729;DHT22;18309;43.658;1.312;2023-07-29T15:30:45;30.80;86.50
31729;DHT22;18309;43.658;1.312;2023-07-29T15:33:10;30.60;87.40
31729;DHT22;18309;43.658;1.312;2023-07-29T15:35:37;30.50;87.70
31729;DHT22;18309;43.658;1.312;2023-07-29T15:38:05;30.50;87.80
31729;DHT22;18309;43.658;1.312;2023-07-29T15:40:32;30.40;88.10